sensor_id;sensor_type;location;lat;lon;timestamp;P1;durP1;ratioP1;P2;durP2;ratioP2
23181;SDS011;11759;51.282;6.642;2022-10-29T00:01:15;22.30;;;9.07;;
23181;SDS011;11759;51.282;6.642;2022-10-29T00:03:42;26.00;;;9.25;;
23181;SDS011;11759;51.282;6.642;2022-10-29T00:06:09;22.92;;;9.32;;
23181;SDS011;11759;51.282;6.642;2022-10-29T00:08:37;26.50;;;8.15;;
23181;SDS011;11759;51.282;6.642;2022-10-29T00:11:07;21.35;;;9.02;;
23181;SDS011;11759;51.282;6.642;2022-10-29T00:13:35;30.20;;;8.95;;
23181;SDS011;11759;51.282;6.642;2022-10-29T00:16:06;20.48;;;7.93;;
23181;SDS011;11759;51.282;6.642;2022-10-29T00:18:34;29.17;;;9.68;;
23181;SDS011;11759;51.282;6.642;2022-10-29T00:21:01;23.08;;;9.45;;
23181;SDS011;11759;51.282;6.642;2022-10-29T00:23:33;23.02;;;9.32;;
23181;SDS011;11759;51.282;6.642;2022-10-29T00:26:00;26.83;;;9.02;;
23181;SDS011;11759;51.282;6.642;2022-10-29T00:28:27;25.20;;;9.55;;
23181;SDS011;11759;51.282;6.642;2022-10-29T00:30:54;24.42;;;8.85;;
23181;SDS011;11759;51.282;6.642;2022-10-29T00:33:21;25.48;;;9.48;;
23181;SDS011;11759;51.282;6.642;2022-10-29T00:35:54;26.90;;;9.23;;
23181;SDS011;11759;51.282;6.642;2022-10-29T00:38:22;26.05;;;10.35;;
23181;SDS011;11759;51.282;6.642;2022-10-29T00:40:49;23.13;;;8.80;;
23181;SDS011;11759;51.282;6.642;2022-10-29T00:43:17;21.42;;;8.10;;
23181;SDS011;11759;51.282;6.642;2022-10-29T00:45:49;19.77;;;8.57;;
23181;SDS011;11759;51.282;6.642;2022-10-29T00:48:22;29.65;;;9.27;;
23181;SDS011;11759;51.282;6.642;2022-10-29T00:50:50;23.63;;;9.48;;
23181;SDS011;11759;51.282;6.642;2022-10-29T00:53:19;28.50;;;9.60;;
23181;SDS011;11759;51.282;6.642;2022-10-29T00:55:49;30.10;;;9.87;;
23181;SDS011;11759;51.282;6.642;2022-10-29T00:58:15;27.27;;;9.35;;
23181;SDS011;11759;51.282;6.642;2022-10-29T01:00:42;23.50;;;8.30;;
23181;SDS011;11759;51.282;6.642;2022-10-29T01:03:09;26.13;;;9.13;;
23181;SDS011;11759;51.282;6.642;2022-10-29T01:05:36;20.92;;;9.25;;
23181;SDS011;11759;51.282;6.642;2022-10-29T01:08:03;30.80;;;9.32;;
23181;SDS011;11759;51.282;6.642;2022-10-29T01:18:19;22.13;;;9.32;;
23181;SDS011;11759;51.282;6.642;2022-10-29T01:33:01;34.83;;;9.70;;
23181;SDS011;11759;51.282;6.642;2022-10-29T01:40:49;23.95;;;9.55;;
23181;SDS011;11759;51.282;6.642;2022-10-29T01:46:54;26.10;;;8.65;;
23181;SDS011;11759;51.282;6.642;2022-10-29T01:51:49;26.25;;;10.20;;
23181;SDS011;11759;51.282;6.642;2022-10-29T01:54:17;26.17;;;9.57;;
23181;SDS011;11759;51.282;6.642;2022-10-29T01:56:52;21.13;;;9.02;;
23181;SDS011;11759;51.282;6.642;2022-10-29T01:59:19;25.83;;;9.40;;
23181;SDS011;11759;51.282;6.642;2022-10-29T02:02:14;24.30;;;9.23;;
23181;SDS011;11759;51.282;6.642;2022-10-29T02:10:35;28.23;;;10.05;;
23181;SDS011;11759;51.282;6.642;2022-10-29T02:12:53;23.13;;;9.80;;
23181;SDS011;11759;51.282;6.642;2022-10-29T02:20:23;24.05;;;9.60;;
23181;SDS011;11759;51.282;6.642;2022-10-29T02:22:50;27.70;;;9.57;;
23181;SDS011;11759;51.282;6.642;2022-10-29T02:25:16;30.30;;;9.98;;
23181;SDS011;11759;51.282;6.642;2022-10-29T02:27:43;27.75;;;9.95;;
23181;SDS011;11759;51.282;6.642;2022-10-29T02:30:09;24.70;;;10.18;;
23181;SDS011;11759;51.282;6.642;2022-10-29T02:32:36;29.50;;;10.00;;
23181;SDS011;11759;51.282;6.642;2022-10-29T02:35:03;30.75;;;9.52;;
23181;SDS011;11759;51.282;6.642;2022-10-29T02:37:30;21.55;;;9.50;;
23181;SDS011;11759;51.282;6.642;2022-10-29T02:39:56;26.95;;;9.60;;
23181;SDS011;11759;51.282;6.642;2022-10-29T02:42:23;24.63;;;9.43;;
23181;SDS011;11759;51.282;6.642;2022-10-29T02:44:50;34.58;;;11.82;;
23181;SDS011;11759;51.282;6.642;2022-10-29T02:47:16;29.52;;;9.82;;
23181;SDS011;11759;51.282;6.642;2022-10-29T02:49:43;28.20;;;10.13;;
23181;SDS011;11759;51.282;6.642;2022-10-29T02:52:09;19.30;;;9.35;;
23181;SDS011;11759;51.282;6.642;2022-10-29T02:54:36;22.60;;;9.50;;
23181;SDS011;11759;51.282;6.642;2022-10-29T02:57:04;21.10;;;9.15;;
23181;SDS011;11759;51.282;6.642;2022-10-29T02:59:31;27.23;;;9.27;;
23181;SDS011;11759;51.282;6.642;2022-10-29T03:01:58;36.90;;;11.20;;
23181;SDS011;11759;51.282;6.642;2022-10-29T03:04:24;23.75;;;8.88;;
23181;SDS011;11759;51.282;6.642;2022-10-29T03:06:51;18.10;;;9.05;;
23181;SDS011;11759;51.282;6.642;2022-10-29T03:09:17;23.45;;;9.73;;
23181;SDS011;11759;51.282;6.642;2022-10-29T03:11:44;23.85;;;9.68;;
23181;SDS011;11759;51.282;6.642;2022-10-29T03:14:10;25.10;;;9.45;;
23181;SDS011;11759;51.282;6.642;2022-10-29T03:16:37;31.58;;;10.20;;
23181;SDS011;11759;51.282;6.642;2022-10-29T03:19:03;29.00;;;10.23;;
23181;SDS011;11759;51.282;6.642;2022-10-29T03:21:30;33.40;;;10.60;;
23181;SDS011;11759;51.282;6.642;2022-10-29T03:23:56;28.95;;;9.68;;
23181;SDS011;11759;51.282;6.642;2022-10-29T03:26:23;31.73;;;10.77;;
23181;SDS011;11759;51.282;6.642;2022-10-29T03:28:49;24.73;;;10.35;;
23181;SDS011;11759;51.282;6.642;2022-10-29T03:31:16;27.30;;;10.40;;
23181;SDS011;11759;51.282;6.642;2022-10-29T03:33:42;18.63;;;9.68;;
23181;SDS011;11759;51.282;6.642;2022-10-29T03:36:09;26.38;;;10.27;;
23181;SDS011;11759;51.282;6.642;2022-10-29T03:38:36;30.13;;;10.57;;
23181;SDS011;11759;51.282;6.642;2022-10-29T03:41:02;25.15;;;10.57;;
23181;SDS011;11759;51.282;6.642;2022-10-29T03:43:34;26.27;;;10.15;;
23181;SDS011;11759;51.282;6.642;2022-10-29T03:46:02;29.75;;;11.68;;
23181;SDS011;11759;51.282;6.642;2022-10-29T03:48:29;32.08;;;11.07;;
23181;SDS011;11759;51.282;6.642;2022-10-29T03:50:56;34.78;;;11.57;;
23181;SDS011;11759;51.282;6.642;2022-10-29T03:53:24;40.38;;;11.48;;
23181;SDS011;11759;51.282;6.642;2022-10-29T03:55:51;33.35;;;11.20;;
23181;SDS011;11759;51.282;6.642;2022-10-29T03:58:18;23.30;;;10.02;;
23181;SDS011;11759;51.282;6.642;2022-10-29T04:01:01;26.65;;;10.63;;
23181;SDS011;11759;51.282;6.642;2022-10-29T04:03:29;21.83;;;9.98;;
23181;SDS011;11759;51.282;6.642;2022-10-29T04:05:57;29.73;;;11.15;;
23181;SDS011;11759;51.282;6.642;2022-10-29T04:08:25;26.13;;;10.70;;
23181;SDS011;11759;51.282;6.642;2022-10-29T04:10:51;24.92;;;11.05;;
23181;SDS011;11759;51.282;6.642;2022-10-29T04:13:18;25.40;;;11.15;;
23181;SDS011;11759;51.282;6.642;2022-10-29T04:15:45;32.15;;;10.68;;
23181;SDS011;11759;51.282;6.642;2022-10-29T04:18:12;27.13;;;11.52;;
23181;SDS011;11759;51.282;6.642;2022-10-29T04:20:38;28.30;;;10.63;;
23181;SDS011;11759;51.282;6.642;2022-10-29T04:23:25;27.65;;;10.98;;
23181;SDS011;11759;51.282;6.642;2022-10-29T04:26:12;37.65;;;12.27;;
23181;SDS011;11759;51.282;6.642;2022-10-29T04:28:59;29.38;;;11.18;;
23181;SDS011;11759;51.282;6.642;2022-10-29T04:31:25;26.02;;;11.48;;
23181;SDS011;11759;51.282;6.642;2022-10-29T04:33:52;27.83;;;12.77;;
23181;SDS011;11759;51.282;6.642;2022-10-29T04:36:19;32.47;;;12.23;;
23181;SDS011;11759;51.282;6.642;2022-10-29T04:38:45;34.90;;;13.25;;
23181;SDS011;11759;51.282;6.642;2022-10-29T04:41:12;42.53;;;13.98;;
23181;SDS011;11759;51.282;6.642;2022-10-29T04:43:38;32.65;;;13.00;;
23181;SDS011;11759;51.282;6.642;2022-10-29T04:46:05;32.15;;;13.57;;
23181;SDS011;11759;51.282;6.642;2022-10-29T04:48:31;41.17;;;15.88;;
23181;SDS011;11759;51.282;6.642;2022-10-29T04:50:58;39.83;;;16.08;;
23181;SDS011;11759;51.282;6.642;2022-10-29T04:53:24;46.78;;;16.08;;
23181;SDS011;11759;51.282;6.642;2022-10-29T04:55:57;37.88;;;14.88;;
23181;SDS011;11759;51.282;6.642;2022-10-29T04:58:27;33.42;;;13.70;;
23181;SDS011;11759;51.282;6.642;2022-10-29T05:00:59;33.08;;;13.73;;
23181;SDS011;11759;51.282;6.642;2022-10-29T05:03:26;39.85;;;13.25;;
23181;SDS011;11759;51.282;6.642;2022-10-29T05:05:53;34.20;;;12.15;;
23181;SDS011;11759;51.282;6.642;2022-10-29T05:08:19;35.10;;;12.63;;
23181;SDS011;11759;51.282;6.642;2022-10-29T05:10:46;37.08;;;12.77;;
23181;SDS011;11759;51.282;6.642;2022-10-29T05:13:13;32.47;;;11.98;;
23181;SDS011;11759;51.282;6.642;2022-10-29T05:15:39;35.20;;;13.05;;
23181;SDS011;11759;51.282;6.642;2022-10-29T05:18:06;32.90;;;12.05;;
23181;SDS011;11759;51.282;6.642;2022-10-29T05:20:34;25.23;;;11.63;;
23181;SDS011;11759;51.282;6.642;2022-10-29T05:23:02;28.65;;;10.80;;
23181;SDS011;11759;51.282;6.642;2022-10-29T05:25:32;32.28;;;11.23;;
23181;SDS011;11759;51.282;6.642;2022-10-29T05:28:21;26.02;;;10.82;;
23181;SDS011;11759;51.282;6.642;2022-10-29T05:30:48;31.25;;;10.82;;
23181;SDS011;11759;51.282;6.642;2022-10-29T05:33:17;32.38;;;11.23;;
23181;SDS011;11759;51.282;6.642;2022-10-29T05:35:44;29.45;;;11.13;;
23181;SDS011;11759;51.282;6.642;2022-10-29T05:38:11;36.15;;;11.77;;
23181;SDS011;11759;51.282;6.642;2022-10-29T05:40:38;37.33;;;10.60;;
23181;SDS011;11759;51.282;6.642;2022-10-29T05:43:05;30.98;;;11.20;;
23181;SDS011;11759;51.282;6.642;2022-10-29T05:45:32;31.55;;;10.95;;
23181;SDS011;11759;51.282;6.642;2022-10-29T05:47:59;29.98;;;11.13;;
23181;SDS011;11759;51.282;6.642;2022-10-29T05:50:27;29.92;;;10.43;;
23181;SDS011;11759;51.282;6.642;2022-10-29T05:53:01;28.75;;;10.75;;
23181;SDS011;11759;51.282;6.642;2022-10-29T05:55:30;34.80;;;10.65;;
23181;SDS011;11759;51.282;6.642;2022-10-29T05:57:57;36.20;;;10.45;;
23181;SDS011;11759;51.282;6.642;2022-10-29T06:00:25;27.15;;;9.60;;
23181;SDS011;11759;51.282;6.642;2022-10-29T06:02:53;26.70;;;10.02;;
23181;SDS011;11759;51.282;6.642;2022-10-29T06:05:21;28.90;;;10.18;;
23181;SDS011;11759;51.282;6.642;2022-10-29T06:08:00;28.98;;;11.00;;
23181;SDS011;11759;51.282;6.642;2022-10-29T06:10:27;33.63;;;11.13;;
23181;SDS011;11759;51.282;6.642;2022-10-29T06:12:54;25.38;;;10.25;;
23181;SDS011;11759;51.282;6.642;2022-10-29T06:15:21;27.65;;;10.27;;
23181;SDS011;11759;51.282;6.642;2022-10-29T06:17:48;25.92;;;10.05;;
23181;SDS011;11759;51.282;6.642;2022-10-29T06:20:15;32.67;;;9.68;;
23181;SDS011;11759;51.282;6.642;2022-10-29T06:22:45;33.63;;;10.18;;
23181;SDS011;11759;51.282;6.642;2022-10-29T06:25:12;23.58;;;9.70;;
23181;SDS011;11759;51.282;6.642;2022-10-29T06:27:39;30.80;;;9.48;;
23181;SDS011;11759;51.282;6.642;2022-10-29T06:30:05;25.90;;;8.88;;
23181;SDS011;11759;51.282;6.642;2022-10-29T06:32:32;29.70;;;9.00;;
23181;SDS011;11759;51.282;6.642;2022-10-29T06:34:59;25.55;;;9.02;;
23181;SDS011;11759;51.282;6.642;2022-10-29T06:37:25;24.42;;;8.88;;
23181;SDS011;11759;51.282;6.642;2022-10-29T06:39:52;26.25;;;10.07;;
23181;SDS011;11759;51.282;6.642;2022-10-29T06:42:19;40.45;;;10.13;;
23181;SDS011;11759;51.282;6.642;2022-10-29T06:44:45;33.90;;;9.45;;
23181;SDS011;11759;51.282;6.642;2022-10-29T06:47:12;32.72;;;8.68;;
23181;SDS011;11759;51.282;6.642;2022-10-29T06:49:38;29.85;;;8.45;;
23181;SDS011;11759;51.282;6.642;2022-10-29T06:52:05;31.20;;;8.63;;
23181;SDS011;11759;51.282;6.642;2022-10-29T06:54:31;26.17;;;8.45;;
23181;SDS011;11759;51.282;6.642;2022-10-29T06:56:58;28.77;;;9.02;;
23181;SDS011;11759;51.282;6.642;2022-10-29T06:59:24;19.33;;;8.00;;
23181;SDS011;11759;51.282;6.642;2022-10-29T07:01:51;22.13;;;7.65;;
23181;SDS011;11759;51.282;6.642;2022-10-29T07:04:17;27.42;;;8.02;;
23181;SDS011;11759;51.282;6.642;2022-10-29T07:06:46;20.95;;;7.88;;
23181;SDS011;11759;51.282;6.642;2022-10-29T07:09:12;19.85;;;7.28;;
23181;SDS011;11759;51.282;6.642;2022-10-29T07:11:39;24.60;;;8.63;;
23181;SDS011;11759;51.282;6.642;2022-10-29T07:14:05;31.17;;;7.97;;
23181;SDS011;11759;51.282;6.642;2022-10-29T07:16:33;20.83;;;8.25;;
23181;SDS011;11759;51.282;6.642;2022-10-29T07:19:00;23.00;;;8.10;;
23181;SDS011;11759;51.282;6.642;2022-10-29T07:21:28;23.50;;;7.70;;
23181;SDS011;11759;51.282;6.642;2022-10-29T07:23:55;18.73;;;8.52;;
23181;SDS011;11759;51.282;6.642;2022-10-29T07:26:22;22.52;;;7.25;;
23181;SDS011;11759;51.282;6.642;2022-10-29T07:28:48;25.50;;;7.55;;
23181;SDS011;11759;51.282;6.642;2022-10-29T07:31:15;18.95;;;7.65;;
23181;SDS011;11759;51.282;6.642;2022-10-29T07:33:42;20.77;;;7.45;;
23181;SDS011;11759;51.282;6.642;2022-10-29T07:36:08;34.53;;;9.70;;
23181;SDS011;11759;51.282;6.642;2022-10-29T07:38:35;23.77;;;8.85;;
23181;SDS011;11759;51.282;6.642;2022-10-29T07:41:01;22.42;;;7.72;;
23181;SDS011;11759;51.282;6.642;2022-10-29T07:43:28;21.60;;;7.45;;
23181;SDS011;11759;51.282;6.642;2022-10-29T07:45:54;24.92;;;8.35;;
23181;SDS011;11759;51.282;6.642;2022-10-29T07:48:21;22.58;;;8.65;;
23181;SDS011;11759;51.282;6.642;2022-10-29T07:50:47;26.85;;;9.25;;
23181;SDS011;11759;51.282;6.642;2022-10-29T07:53:14;25.85;;;8.55;;
23181;SDS011;11759;51.282;6.642;2022-10-29T07:55:41;20.90;;;7.18;;
23181;SDS011;11759;51.282;6.642;2022-10-29T07:58:09;24.23;;;8.15;;
23181;SDS011;11759;51.282;6.642;2022-10-29T08:00:37;26.50;;;7.85;;
23181;SDS011;11759;51.282;6.642;2022-10-29T08:03:05;22.15;;;7.10;;
23181;SDS011;11759;51.282;6.642;2022-10-29T08:05:31;24.65;;;8.00;;
23181;SDS011;11759;51.282;6.642;2022-10-29T08:07:58;22.58;;;8.02;;
23181;SDS011;11759;51.282;6.642;2022-10-29T08:10:25;23.60;;;8.10;;
23181;SDS011;11759;51.282;6.642;2022-10-29T08:12:53;28.92;;;8.35;;
23181;SDS011;11759;51.282;6.642;2022-10-29T08:15:25;21.88;;;8.02;;
23181;SDS011;11759;51.282;6.642;2022-10-29T08:17:53;24.38;;;8.27;;
23181;SDS011;11759;51.282;6.642;2022-10-29T08:20:20;27.10;;;9.35;;
23181;SDS011;11759;51.282;6.642;2022-10-29T08:22:47;27.83;;;8.90;;
23181;SDS011;11759;51.282;6.642;2022-10-29T08:25:14;24.23;;;7.82;;
23181;SDS011;11759;51.282;6.642;2022-10-29T08:27:41;24.65;;;8.10;;
23181;SDS011;11759;51.282;6.642;2022-10-29T08:30:12;26.25;;;8.10;;
23181;SDS011;11759;51.282;6.642;2022-10-29T08:32:45;29.75;;;7.90;;
23181;SDS011;11759;51.282;6.642;2022-10-29T08:35:12;26.80;;;8.18;;
23181;SDS011;11759;51.282;6.642;2022-10-29T08:37:42;22.52;;;8.00;;
23181;SDS011;11759;51.282;6.642;2022-10-29T08:49:16;18.88;;;6.90;;
23181;SDS011;11759;51.282;6.642;2022-10-29T08:51:52;20.30;;;7.22;;
23181;SDS011;11759;51.282;6.642;2022-10-29T08:54:20;26.38;;;7.43;;
23181;SDS011;11759;51.282;6.642;2022-10-29T08:56:57;24.75;;;7.05;;
23181;SDS011;11759;51.282;6.642;2022-10-29T08:59:24;25.25;;;8.48;;
23181;SDS011;11759;51.282;6.642;2022-10-29T09:01:55;25.15;;;7.47;;
23181;SDS011;11759;51.282;6.642;2022-10-29T09:04:34;20.33;;;7.15;;
23181;SDS011;11759;51.282;6.642;2022-10-29T09:07:20;16.52;;;6.13;;
23181;SDS011;11759;51.282;6.642;2022-10-29T09:10:03;22.13;;;7.60;;
23181;SDS011;11759;51.282;6.642;2022-10-29T09:12:55;17.10;;;6.88;;
23181;SDS011;11759;51.282;6.642;2022-10-29T09:18:18;24.00;;;7.45;;
23181;SDS011;11759;51.282;6.642;2022-10-29T09:24:15;24.65;;;7.10;;
23181;SDS011;11759;51.282;6.642;2022-10-29T09:29:25;29.73;;;7.50;;
23181;SDS011;11759;51.282;6.642;2022-10-29T09:32:07;23.60;;;6.93;;
23181;SDS011;11759;51.282;6.642;2022-10-29T09:34:46;21.98;;;7.13;;
23181;SDS011;11759;51.282;6.642;2022-10-29T09:37:20;15.80;;;6.68;;
23181;SDS011;11759;51.282;6.642;2022-10-29T09:40:16;20.75;;;7.03;;
23181;SDS011;11759;51.282;6.642;2022-10-29T09:42:46;19.05;;;6.63;;
23181;SDS011;11759;51.282;6.642;2022-10-29T09:45:16;21.85;;;6.90;;
23181;SDS011;11759;51.282;6.642;2022-10-29T09:47:54;21.45;;;6.45;;
23181;SDS011;11759;51.282;6.642;2022-10-29T09:53:07;25.50;;;7.68;;
23181;SDS011;11759;51.282;6.642;2022-10-29T09:55:37;23.48;;;7.18;;
23181;SDS011;11759;51.282;6.642;2022-10-29T09:58:06;18.13;;;6.70;;
23181;SDS011;11759;51.282;6.642;2022-10-29T10:00:33;21.13;;;6.65;;
23181;SDS011;11759;51.282;6.642;2022-10-29T10:03:02;28.65;;;7.05;;
23181;SDS011;11759;51.282;6.642;2022-10-29T10:05:35;22.05;;;7.55;;
23181;SDS011;11759;51.282;6.642;2022-10-29T10:08:04;17.42;;;6.10;;
23181;SDS011;11759;51.282;6.642;2022-10-29T10:10:32;31.55;;;7.18;;
23181;SDS011;11759;51.282;6.642;2022-10-29T10:13:01;27.67;;;7.25;;
23181;SDS011;11759;51.282;6.642;2022-10-29T10:15:32;33.40;;;6.78;;
23181;SDS011;11759;51.282;6.642;2022-10-29T10:18:15;23.13;;;6.78;;
23181;SDS011;11759;51.282;6.642;2022-10-29T10:20:45;23.90;;;5.85;;
23181;SDS011;11759;51.282;6.642;2022-10-29T10:23:24;24.17;;;5.85;;
23181;SDS011;11759;51.282;6.642;2022-10-29T10:25:53;22.73;;;5.97;;
23181;SDS011;11759;51.282;6.642;2022-10-29T10:28:30;21.55;;;6.45;;
23181;SDS011;11759;51.282;6.642;2022-10-29T10:33:52;22.77;;;6.43;;
23181;SDS011;11759;51.282;6.642;2022-10-29T10:36:20;21.83;;;7.43;;
23181;SDS011;11759;51.282;6.642;2022-10-29T10:38:49;21.50;;;6.30;;
23181;SDS011;11759;51.282;6.642;2022-10-29T10:41:25;17.50;;;6.63;;
23181;SDS011;11759;51.282;6.642;2022-10-29T10:44:00;19.33;;;6.22;;
23181;SDS011;11759;51.282;6.642;2022-10-29T10:46:31;24.70;;;6.45;;
23181;SDS011;11759;51.282;6.642;2022-10-29T10:49:04;25.10;;;6.93;;
23181;SDS011;11759;51.282;6.642;2022-10-29T10:51:33;20.63;;;5.80;;
23181;SDS011;11759;51.282;6.642;2022-10-29T10:54:03;16.92;;;5.00;;
23181;SDS011;11759;51.282;6.642;2022-10-29T10:56:59;25.33;;;6.13;;
23181;SDS011;11759;51.282;6.642;2022-10-29T11:00:01;22.15;;;6.50;;
23181;SDS011;11759;51.282;6.642;2022-10-29T11:02:47;24.13;;;6.07;;
23181;SDS011;11759;51.282;6.642;2022-10-29T11:05:35;27.42;;;5.47;;
23181;SDS011;11759;51.282;6.642;2022-10-29T11:10:39;17.35;;;5.05;;
23181;SDS011;11759;51.282;6.642;2022-10-29T11:13:19;19.90;;;5.78;;
23181;SDS011;11759;51.282;6.642;2022-10-29T11:16:14;16.08;;;6.03;;
23181;SDS011;11759;51.282;6.642;2022-10-29T11:18:51;24.48;;;6.00;;
23181;SDS011;11759;51.282;6.642;2022-10-29T11:21:24;23.17;;;6.00;;
23181;SDS011;11759;51.282;6.642;2022-10-29T11:24:02;29.00;;;5.68;;
23181;SDS011;11759;51.282;6.642;2022-10-29T11:26:47;15.00;;;5.78;;
23181;SDS011;11759;51.282;6.642;2022-10-29T11:29:21;18.38;;;5.47;;
23181;SDS011;11759;51.282;6.642;2022-10-29T11:31:57;24.80;;;5.35;;
23181;SDS011;11759;51.282;6.642;2022-10-29T11:43:17;21.77;;;4.90;;
23181;SDS011;11759;51.282;6.642;2022-10-29T11:53:55;19.42;;;6.13;;
23181;SDS011;11759;51.282;6.642;2022-10-29T11:58:59;19.17;;;6.10;;
23181;SDS011;11759;51.282;6.642;2022-10-29T12:04:45;19.17;;;6.10;;
23181;SDS011;11759;51.282;6.642;2022-10-29T12:07:20;18.15;;;5.35;;
23181;SDS011;11759;51.282;6.642;2022-10-29T12:15:38;18.45;;;5.60;;
23181;SDS011;11759;51.282;6.642;2022-10-29T12:23:56;20.58;;;6.03;;
23181;SDS011;11759;51.282;6.642;2022-10-29T12:26:37;24.15;;;6.43;;
23181;SDS011;11759;51.282;6.642;2022-10-29T12:31:56;20.70;;;5.82;;
23181;SDS011;11759;51.282;6.642;2022-10-29T12:34:30;20.17;;;5.30;;
23181;SDS011;11759;51.282;6.642;2022-10-29T12:37:14;19.85;;;5.65;;
23181;SDS011;11759;51.282;6.642;2022-10-29T12:42:24;24.80;;;5.90;;
23181;SDS011;11759;51.282;6.642;2022-10-29T12:50:57;21.40;;;5.35;;
23181;SDS011;11759;51.282;6.642;2022-10-29T12:53:38;21.77;;;5.88;;
23181;SDS011;11759;51.282;6.642;2022-10-29T12:56:08;21.42;;;5.93;;
23181;SDS011;11759;51.282;6.642;2022-10-29T12:58:53;16.17;;;5.47;;
23181;SDS011;11759;51.282;6.642;2022-10-29T13:09:33;19.70;;;5.63;;
23181;SDS011;11759;51.282;6.642;2022-10-29T13:12:03;22.05;;;6.00;;
23181;SDS011;11759;51.282;6.642;2022-10-29T13:14:34;17.25;;;5.80;;
23181;SDS011;11759;51.282;6.642;2022-10-29T13:19:59;20.63;;;5.05;;
23181;SDS011;11759;51.282;6.642;2022-10-29T13:22:30;21.52;;;5.78;;
23181;SDS011;11759;51.282;6.642;2022-10-29T13:25:56;18.65;;;5.65;;
23181;SDS011;11759;51.282;6.642;2022-10-29T13:30:35;23.15;;;5.80;;
23181;SDS011;11759;51.282;6.642;2022-10-29T13:38:40;23.48;;;5.82;;
23181;SDS011;11759;51.282;6.642;2022-10-29T13:41:27;18.55;;;5.28;;
23181;SDS011;11759;51.282;6.642;2022-10-29T13:44:13;12.43;;;4.85;;
23181;SDS011;11759;51.282;6.642;2022-10-29T13:54:43;21.33;;;5.55;;
23181;SDS011;11759;51.282;6.642;2022-10-29T14:02:27;20.25;;;5.50;;
23181;SDS011;11759;51.282;6.642;2022-10-29T14:10:28;19.67;;;6.05;;
23181;SDS011;11759;51.282;6.642;2022-10-29T14:18:29;17.45;;;5.30;;
23181;SDS011;11759;51.282;6.642;2022-10-29T14:21:03;22.63;;;5.28;;
23181;SDS011;11759;51.282;6.642;2022-10-29T14:26:28;15.35;;;4.82;;
23181;SDS011;11759;51.282;6.642;2022-10-29T14:29:11;23.40;;;6.13;;
23181;SDS011;11759;51.282;6.642;2022-10-29T14:32:10;25.17;;;5.32;;
23181;SDS011;11759;51.282;6.642;2022-10-29T14:34:36;17.00;;;5.20;;
23181;SDS011;11759;51.282;6.642;2022-10-29T14:37:07;19.33;;;4.93;;
23181;SDS011;11759;51.282;6.642;2022-10-29T14:39:40;20.67;;;4.90;;
23181;SDS011;11759;51.282;6.642;2022-10-29T14:42:26;20.35;;;5.50;;
23181;SDS011;11759;51.282;6.642;2022-10-29T14:44:57;20.10;;;5.57;;
23181;SDS011;11759;51.282;6.642;2022-10-29T14:47:27;28.42;;;5.70;;
23181;SDS011;11759;51.282;6.642;2022-10-29T14:49:59;23.38;;;6.43;;
23181;SDS011;11759;51.282;6.642;2022-10-29T14:52:36;21.13;;;6.32;;
23181;SDS011;11759;51.282;6.642;2022-10-29T14:55:07;19.50;;;5.25;;
23181;SDS011;11759;51.282;6.642;2022-10-29T14:57:49;21.50;;;5.07;;
23181;SDS011;11759;51.282;6.642;2022-10-29T15:00:30;23.40;;;5.10;;
23181;SDS011;11759;51.282;6.642;2022-10-29T15:02:58;17.25;;;5.07;;
23181;SDS011;11759;51.282;6.642;2022-10-29T15:05:32;18.25;;;5.07;;
23181;SDS011;11759;51.282;6.642;2022-10-29T15:10:47;21.67;;;5.65;;
23181;SDS011;11759;51.282;6.642;2022-10-29T15:13:19;22.80;;;5.60;;
23181;SDS011;11759;51.282;6.642;2022-10-29T15:18:34;23.02;;;5.10;;
23181;SDS011;11759;51.282;6.642;2022-10-29T15:21:02;21.17;;;5.10;;
23181;SDS011;11759;51.282;6.642;2022-10-29T15:23:30;14.35;;;5.03;;
23181;SDS011;11759;51.282;6.642;2022-10-29T15:26:06;21.08;;;5.22;;
23181;SDS011;11759;51.282;6.642;2022-10-29T15:28:40;21.02;;;5.28;;
23181;SDS011;11759;51.282;6.642;2022-10-29T15:31:14;24.85;;;5.45;;
23181;SDS011;11759;51.282;6.642;2022-10-29T15:33:50;19.17;;;5.28;;
23181;SDS011;11759;51.282;6.642;2022-10-29T15:44:00;19.23;;;4.82;;
23181;SDS011;11759;51.282;6.642;2022-10-29T15:46:27;18.58;;;4.95;;
23181;SDS011;11759;51.282;6.642;2022-10-29T15:49:19;20.42;;;5.57;;
23181;SDS011;11759;51.282;6.642;2022-10-29T15:51:47;17.65;;;5.22;;
23181;SDS011;11759;51.282;6.642;2022-10-29T15:54:14;19.48;;;4.95;;
23181;SDS011;11759;51.282;6.642;2022-10-29T15:56:41;17.48;;;5.43;;
23181;SDS011;11759;51.282;6.642;2022-10-29T15:59:11;17.55;;;4.68;;
23181;SDS011;11759;51.282;6.642;2022-10-29T16:01:39;20.83;;;5.53;;
23181;SDS011;11759;51.282;6.642;2022-10-29T16:04:06;19.10;;;5.45;;
23181;SDS011;11759;51.282;6.642;2022-10-29T16:06:33;19.67;;;4.68;;
23181;SDS011;11759;51.282;6.642;2022-10-29T16:09:00;19.60;;;5.05;;
23181;SDS011;11759;51.282;6.642;2022-10-29T16:11:26;17.27;;;4.93;;
23181;SDS011;11759;51.282;6.642;2022-10-29T16:13:53;19.52;;;5.53;;
23181;SDS011;11759;51.282;6.642;2022-10-29T16:16:21;23.23;;;6.35;;
23181;SDS011;11759;51.282;6.642;2022-10-29T16:18:49;28.25;;;5.43;;
23181;SDS011;11759;51.282;6.642;2022-10-29T16:21:20;19.25;;;5.90;;
23181;SDS011;11759;51.282;6.642;2022-10-29T16:23:47;24.20;;;5.90;;
23181;SDS011;11759;51.282;6.642;2022-10-29T16:26:15;27.85;;;5.60;;
23181;SDS011;11759;51.282;6.642;2022-10-29T16:28:43;17.23;;;5.38;;
23181;SDS011;11759;51.282;6.642;2022-10-29T16:31:14;21.20;;;5.05;;
23181;SDS011;11759;51.282;6.642;2022-10-29T16:33:45;22.27;;;5.38;;
23181;SDS011;11759;51.282;6.642;2022-10-29T16:36:15;17.55;;;4.85;;
23181;SDS011;11759;51.282;6.642;2022-10-29T16:38:41;23.45;;;6.18;;
23181;SDS011;11759;51.282;6.642;2022-10-29T16:41:12;15.50;;;5.55;;
23181;SDS011;11759;51.282;6.642;2022-10-29T16:43:40;21.23;;;4.93;;
23181;SDS011;11759;51.282;6.642;2022-10-29T16:46:07;17.13;;;4.65;;
23181;SDS011;11759;51.282;6.642;2022-10-29T16:48:33;15.60;;;5.38;;
23181;SDS011;11759;51.282;6.642;2022-10-29T16:51:00;26.13;;;5.82;;
23181;SDS011;11759;51.282;6.642;2022-10-29T16:53:27;18.77;;;5.65;;
23181;SDS011;11759;51.282;6.642;2022-10-29T16:55:53;20.77;;;5.93;;
23181;SDS011;11759;51.282;6.642;2022-10-29T16:58:20;26.17;;;6.05;;
23181;SDS011;11759;51.282;6.642;2022-10-29T17:00:47;23.17;;;5.28;;
23181;SDS011;11759;51.282;6.642;2022-10-29T17:03:14;18.98;;;5.88;;
23181;SDS011;11759;51.282;6.642;2022-10-29T17:05:42;20.80;;;6.45;;
23181;SDS011;11759;51.282;6.642;2022-10-29T17:08:10;22.05;;;6.28;;
23181;SDS011;11759;51.282;6.642;2022-10-29T17:10:37;17.15;;;5.38;;
23181;SDS011;11759;51.282;6.642;2022-10-29T17:13:04;18.73;;;6.32;;
23181;SDS011;11759;51.282;6.642;2022-10-29T17:15:32;22.65;;;6.13;;
23181;SDS011;11759;51.282;6.642;2022-10-29T17:17:58;17.58;;;5.82;;
23181;SDS011;11759;51.282;6.642;2022-10-29T17:20:26;20.60;;;5.80;;
23181;SDS011;11759;51.282;6.642;2022-10-29T17:22:52;25.20;;;6.50;;
23181;SDS011;11759;51.282;6.642;2022-10-29T17:25:19;20.88;;;6.30;;
23181;SDS011;11759;51.282;6.642;2022-10-29T17:27:45;21.33;;;6.80;;
23181;SDS011;11759;51.282;6.642;2022-10-29T17:30:12;25.33;;;6.07;;
23181;SDS011;11759;51.282;6.642;2022-10-29T17:32:39;22.13;;;6.80;;
23181;SDS011;11759;51.282;6.642;2022-10-29T17:35:05;20.50;;;6.45;;
23181;SDS011;11759;51.282;6.642;2022-10-29T17:37:32;19.90;;;6.53;;
23181;SDS011;11759;51.282;6.642;2022-10-29T17:39:58;22.95;;;6.88;;
23181;SDS011;11759;51.282;6.642;2022-10-29T17:42:33;21.58;;;6.20;;